createdAt,value
2022-08-18T00:04:36.022Z,-72.00
2022-08-18T00:09:32.741Z,-72.00
2022-08-18T00:14:38.995Z,-72.00
2022-08-18T00:19:48.384Z,-108.00
2022-08-18T00:24:53.356Z,-72.00
2022-08-18T00:30:00.628Z,-72.00
2022-08-18T00:35:07.833Z,-36.00
2022-08-18T00:40:15.097Z,-72.00
2022-08-18T00:45:22.207Z,-108.00
2022-08-18T00:50:29.395Z,-72.00
2022-08-18T00:55:36.626Z,-72.00
2022-08-18T01:00:43.864Z,-72.00
2022-08-18T01:05:51.025Z,-72.00
2022-08-18T01:10:58.224Z,-108.00
2022-08-18T01:16:05.414Z,-72.00
2022-08-18T01:21:12.666Z,-72.00
2022-08-18T01:26:19.851Z,-72.00
2022-08-18T01:31:27.046Z,-72.00
2022-08-18T01:36:34.267Z,-72.00
2022-08-18T01:41:41.534Z,-72.00
2022-08-18T01:46:48.650Z,-72.00
2022-08-18T01:51:55.892Z,-72.00
2022-08-18T01:57:03.124Z,-72.00
2022-08-18T02:02:10.343Z,-72.00
2022-08-18T02:07:17.575Z,-72.00
2022-08-18T02:12:24.780Z,-72.00
2022-08-18T02:17:31.991Z,-36.00
2022-08-18T02:22:39.152Z,-72.00
2022-08-18T02:27:46.382Z,-72.00
2022-08-18T02:32:53.581Z,-72.00
2022-08-18T02:38:00.736Z,-72.00
2022-08-18T02:43:07.952Z,-36.00
2022-08-18T02:48:15.117Z,-72.00
2022-08-18T02:53:22.273Z,-72.00
2022-08-18T02:58:33.585Z,-72.00
2022-08-18T03:03:36.789Z,-72.00
2022-08-18T03:08:43.970Z,-72.00
2022-08-18T03:13:51.224Z,-72.00
2022-08-18T03:18:58.491Z,-72.00
2022-08-18T03:24:09.316Z,-72.00
2022-08-18T03:29:13.027Z,-72.00
2022-08-18T03:34:20.321Z,-72.00
2022-08-18T03:39:28.021Z,-72.00
2022-08-18T03:44:34.910Z,-72.00
2022-08-18T03:49:42.048Z,-72.00
2022-08-18T03:54:49.364Z,-72.00
2022-08-18T03:59:56.614Z,-72.00
2022-08-18T04:05:05.188Z,-36.00
2022-08-18T04:10:16.242Z,-36.00
2022-08-18T04:15:18.183Z,0.00
2022-08-18T04:20:25.320Z,360.00
2022-08-18T04:25:33.191Z,720.00
2022-08-18T04:30:39.773Z,756.00
2022-08-18T04:35:46.967Z,504.00
2022-08-18T04:40:54.188Z,360.00
2022-08-18T04:46:01.404Z,396.00
2022-08-18T04:51:11.209Z,540.00
2022-08-18T04:56:18.429Z,576.00
2022-08-18T05:01:26.095Z,612.00
2022-08-18T05:06:33.044Z,1476.00
2022-08-18T05:11:40.285Z,1872.00
2022-08-18T05:16:48.919Z,1548.00
2022-08-18T05:21:59.513Z,1872.00
2022-08-18T05:27:02.124Z,2628.00
2022-08-18T05:32:09.575Z,3528.00
2022-08-18T05:37:16.844Z,4572.00
2022-08-18T05:42:24.116Z,5076.00
2022-08-18T05:47:32.210Z,5076.00
2022-08-18T05:52:39.398Z,4896.00
2022-08-18T05:57:46.667Z,3852.00
2022-08-18T06:02:53.927Z,3024.00
2022-08-18T06:08:01.452Z,2052.00
2022-08-18T06:13:08.686Z,1512.00
2022-08-18T06:18:17.500Z,3420.00
2022-08-18T06:23:24.721Z,3456.00
2022-08-18T06:28:31.915Z,4248.00
2022-08-18T06:33:39.117Z,4284.00
2022-08-18T06:38:46.371Z,6660.00
2022-08-18T06:43:53.598Z,8928.00
2022-08-18T06:49:00.859Z,9756.00
2022-08-18T06:54:08.067Z,10044.00
2022-08-18T06:59:15.223Z,8424.00
2022-08-18T07:04:22.443Z,8532.00
2022-08-18T07:09:29.723Z,10620.00
2022-08-18T07:14:37.801Z,12132.00
2022-08-18T07:19:45.003Z,8568.00
2022-08-18T07:24:52.267Z,10404.00
2022-08-18T07:29:59.473Z,11628.00
2022-08-18T07:35:06.627Z,13464.00
2022-08-18T07:40:13.932Z,14688.00
2022-08-18T07:45:22.282Z,13212.00
2022-08-18T07:50:57.634Z,13500.00
2022-08-18T07:55:36.876Z,13320.00
2022-08-18T08:01:00.361Z,14112.00
2022-08-18T08:05:51.472Z,14184.00
2022-08-18T08:10:58.669Z,13536.00
2022-08-18T08:16:05.820Z,12060.00
2022-08-18T08:21:13.022Z,11952.00
2022-08-18T08:26:20.256Z,12384.00
2022-08-18T08:31:42.310Z,13356.00
2022-08-18T08:36:34.788Z,13104.00
2022-08-18T08:41:42.047Z,13392.00
2022-08-18T08:46:49.301Z,14076.00
2022-08-18T08:51:56.569Z,13860.00
2022-08-18T08:57:03.763Z,12924.00
2022-08-18T09:02:22.673Z,13572.00
2022-08-18T09:07:18.434Z,13032.00
2022-08-18T09:12:25.839Z,12888.00
2022-08-18T09:17:34.138Z,11808.00
2022-08-18T09:22:40.249Z,11628.00
2022-08-18T09:28:10.606Z,13500.00
2022-08-18T09:32:54.920Z,12672.00
2022-08-18T09:38:02.000Z,11412.00
2022-08-18T09:43:09.187Z,11736.00
2022-08-18T09:48:25.092Z,12096.00
2022-08-18T09:53:23.556Z,11808.00
2022-08-18T09:58:30.779Z,14328.00
2022-08-18T10:03:38.044Z,15264.00
2022-08-18T10:08:45.281Z,13860.00
2022-08-18T10:13:52.473Z,13320.00
2022-08-18T10:18:59.668Z,12780.00
2022-08-18T10:24:35.855Z,13932.00
2022-08-18T10:29:15.991Z,14076.00
2022-08-18T10:34:21.402Z,14544.00
2022-08-18T10:39:28.730Z,14328.00
2022-08-18T10:44:35.929Z,14544.00
2022-08-18T10:49:46.809Z,15516.00
2022-08-18T10:54:51.676Z,14832.00
2022-08-18T10:59:57.725Z,15264.00
2022-08-18T11:05:04.991Z,14724.00
2022-08-18T11:10:28.450Z,15624.00
2022-08-18T11:15:22.149Z,14256.00
2022-08-18T11:20:27.100Z,13248.00
2022-08-18T11:25:34.379Z,11844.00
2022-08-18T11:30:41.597Z,13140.00
2022-08-18T11:35:48.796Z,11664.00
2022-08-18T11:41:09.905Z,9792.00
2022-08-18T11:46:03.516Z,8640.00
2022-08-18T11:51:10.755Z,8784.00
2022-08-18T11:56:17.983Z,9612.00
2022-08-18T12:01:25.214Z,8352.00
2022-08-18T12:06:32.372Z,6948.00
2022-08-18T12:11:41.767Z,8064.00
2022-08-18T12:16:46.771Z,9144.00
2022-08-18T12:21:54.585Z,8496.00
2022-08-18T12:27:01.276Z,8784.00
2022-08-18T12:32:18.069Z,9792.00
2022-08-18T12:37:54.473Z,9180.00
2022-08-18T12:42:22.972Z,9036.00
2022-08-18T12:47:31.153Z,8424.00
2022-08-18T12:52:37.664Z,6480.00
2022-08-18T12:57:52.262Z,6480.00
2022-08-18T13:02:52.201Z,6444.00
2022-08-18T13:07:59.357Z,5616.00
2022-08-18T13:13:06.550Z,5400.00
2022-08-18T13:18:14.199Z,5616.00
2022-08-18T13:23:24.925Z,5148.00
2022-08-18T13:28:30.541Z,4428.00
2022-08-18T13:33:56.598Z,3816.00
2022-08-18T13:38:43.354Z,3348.00
2022-08-18T13:43:50.389Z,3492.00
2022-08-18T13:48:57.561Z,7128.00
2022-08-18T13:54:28.854Z,6516.00
2022-08-18T13:59:12.029Z,7236.00
2022-08-18T14:04:20.168Z,8244.00
2022-08-18T14:09:27.841Z,11520.00
2022-08-18T14:14:33.631Z,10224.00
2022-08-18T14:19:40.939Z,10584.00
2022-08-18T14:24:49.115Z,9036.00
2022-08-18T14:29:55.457Z,8316.00
2022-08-18T14:35:33.119Z,8208.00
2022-08-18T14:40:12.348Z,7200.00
2022-08-18T14:45:26.489Z,1152.00
2022-08-18T14:50:25.635Z,972.00
2022-08-18T14:55:31.474Z,792.00
2022-08-18T15:00:49.890Z,540.00
2022-08-18T15:05:45.831Z,360.00
2022-08-18T15:10:53.083Z,252.00
2022-08-18T15:16:02.087Z,180.00
2022-08-18T15:21:10.349Z,324.00
2022-08-18T15:26:16.437Z,504.00
2022-08-18T15:36:30.876Z,828.00
2022-08-18T15:41:43.791Z,828.00
2022-08-18T15:46:51.382Z,828.00
2022-08-18T15:51:52.803Z,828.00
2022-08-18T15:56:59.804Z,792.00
2022-08-18T16:02:07.199Z,720.00
2022-08-18T16:07:14.284Z,648.00
2022-08-18T16:12:21.581Z,576.00
2022-08-18T16:17:31.760Z,504.00
2022-08-18T16:22:36.039Z,576.00
2022-08-18T16:27:43.275Z,3780.00
2022-08-18T16:32:50.452Z,5040.00
2022-08-18T16:37:57.636Z,5328.00
2022-08-18T16:43:04.852Z,5580.00
2022-08-18T16:48:16.331Z,4968.00
2022-08-18T16:53:19.280Z,5580.00
2022-08-18T16:58:26.544Z,6300.00
2022-08-18T17:03:33.722Z,6552.00
2022-08-18T17:08:40.980Z,6264.00
2022-08-18T17:13:48.257Z,5436.00
2022-08-18T17:18:55.517Z,5040.00
2022-08-18T17:24:03.968Z,4644.00
2022-08-18T17:29:11.232Z,9648.00
2022-08-18T17:34:18.500Z,9396.00
2022-08-18T17:39:25.740Z,8892.00
2022-08-18T17:44:32.944Z,9036.00
2022-08-18T17:49:40.169Z,8964.00
2022-08-18T17:54:47.467Z,8964.00
2022-08-18T17:59:54.712Z,8856.00
2022-08-18T18:05:01.945Z,8856.00
2022-08-18T18:10:09.143Z,8244.00
2022-08-18T18:15:16.401Z,8208.00
2022-08-18T18:20:23.605Z,7776.00
2022-08-18T18:25:30.839Z,7668.00
2022-08-18T18:30:38.064Z,7488.00
2022-08-18T18:35:53.274Z,7488.00
2022-08-18T18:40:52.623Z,6768.00
2022-08-18T18:45:59.827Z,6768.00
2022-08-18T18:51:11.773Z,6552.00
2022-08-18T18:56:14.333Z,6588.00
2022-08-18T19:01:21.705Z,6588.00
2022-08-18T19:06:28.889Z,6948.00
2022-08-18T19:11:36.051Z,6876.00
2022-08-18T19:16:43.813Z,6552.00
2022-08-18T19:22:03.993Z,6984.00
2022-08-18T19:26:58.224Z,6912.00
2022-08-18T19:32:05.499Z,9612.00
2022-08-18T19:37:12.709Z,9612.00
2022-08-18T19:42:19.940Z,9576.00
2022-08-18T19:47:27.113Z,9684.00
2022-08-18T19:52:45.508Z,9216.00
2022-08-18T19:57:41.625Z,9396.00
2022-08-18T20:02:48.904Z,9180.00
2022-08-18T20:07:56.082Z,9360.00
2022-08-18T20:13:03.256Z,9180.00
2022-08-18T20:18:10.451Z,9216.00
2022-08-18T20:23:17.666Z,9180.00
2022-08-18T20:28:24.825Z,6192.00
2022-08-18T20:33:32.021Z,6228.00
2022-08-18T20:38:39.291Z,6264.00
2022-08-18T20:43:46.452Z,6228.00
2022-08-18T20:48:53.656Z,6012.00
2022-08-18T20:54:01.506Z,6048.00
2022-08-18T20:59:09.218Z,8316.00
2022-08-18T21:04:15.944Z,8460.00
2022-08-18T21:09:23.120Z,7668.00
2022-08-18T21:14:30.310Z,8676.00
2022-08-18T21:19:37.514Z,8604.00
2022-08-18T21:24:45.423Z,8460.00
2022-08-18T21:29:52.636Z,8424.00
2022-08-18T21:34:59.830Z,8316.00
2022-08-18T21:40:07.114Z,7848.00
2022-08-18T21:45:14.197Z,8172.00
2022-08-18T21:50:21.405Z,8496.00
2022-08-18T21:55:28.592Z,6156.00
2022-08-18T22:00:35.796Z,6228.00
2022-08-18T22:05:58.002Z,6264.00
2022-08-18T22:10:50.138Z,8460.00
2022-08-18T22:15:57.330Z,8604.00
2022-08-18T22:21:07.256Z,8640.00
2022-08-18T22:26:11.806Z,8604.00
2022-08-18T22:31:21.315Z,8712.00
2022-08-18T22:36:26.386Z,8784.00
2022-08-18T22:41:33.566Z,8784.00
2022-08-18T22:46:40.835Z,8820.00
2022-08-18T22:51:48.051Z,6336.00
2022-08-18T22:56:57.730Z,6336.00
2022-08-18T23:02:02.474Z,8604.00
2022-08-18T23:07:09.714Z,8640.00
2022-08-18T23:12:16.996Z,8712.00
2022-08-18T23:17:24.403Z,5976.00
2022-08-18T23:22:31.637Z,8424.00
2022-08-18T23:27:38.845Z,8568.00
2022-08-18T23:32:45.996Z,8496.00
2022-08-18T23:37:53.180Z,8388.00
2022-08-18T23:43:00.375Z,6084.00
2022-08-18T23:48:07.567Z,8316.00
2022-08-18T23:53:14.723Z,8532.00
2022-08-18T23:58:22.329Z,8640.00
